Terminal Aerodrome Forecast
Issued by NWS

Home | Current Version | Previous Version | Text Only | Print | Product List | Glossary On
Versions: 1 2 3 4 5 6 7 8 9 10 11 12 13
000
FTUS45 KABQ 311100
TAFSAF
TAF
KSAF 311120Z 3112/0112 27005KT P6SM SKC
     FM311600 27015G25KT P6SM FEW250
     FM010300 30005KT P6SM FEW250=

USA.gov is the U.S. government's official web portal to all federal, state and local government web resources and services.